Time,TemperatureF,DewpointF,PressureIn,WindDirection,WindDirectionDegrees,WindSpeedMPH,WindSpeedGustMPH,Humidity,HourlyPrecipIn,Conditions,Clouds,dailyrainin,SoftwareType,DateUTC
2013-07-17 00:00:00,66.6,47.5,30.30,WSW,248,0.9,0.9,50,0.00,,,0.00,WUHU216HW,2013-07-17 06:00:00,
2013-07-17 00:05:00,66.6,47.5,30.30,WSW,248,0.9,0.9,50,0.00,,,0.00,WUHU216HW,2013-07-17 06:05:00,
2013-07-17 00:30:00,65.2,47.1,30.30,WSW,248,0.0,0.0,52,0.00,,,0.00,WUHU216HW,2013-07-17 06:30:00,
2013-07-17 00:35:00,65.2,47.1,30.30,WSW,248,0.0,0.0,52,0.00,,,0.00,WUHU216HW,2013-07-17 06:35:00,
2013-07-17 01:00:00,63.7,47.2,30.30,NNE,23,0.0,0.0,55,0.00,,,0.00,WUHU216HW,2013-07-17 07:00:00,
2013-07-17 01:05:00,63.7,47.2,30.30,NNE,23,0.0,0.0,55,0.00,,,0.00,WUHU216HW,2013-07-17 07:05:00,
2013-07-17 01:30:00,63.0,47.0,30.30,SW,225,1.1,1.1,56,0.00,,,0.00,WUHU216HW,2013-07-17 07:30:00,
2013-07-17 01:35:00,63.0,47.0,30.30,SW,225,1.1,1.1,56,0.00,,,0.00,WUHU216HW,2013-07-17 07:35:00,
2013-07-17 02:00:00,62.1,47.2,30.30,NE,45,1.6,1.6,58,0.00,,,0.00,WUHU216HW,2013-07-17 08:00:00,
2013-07-17 02:05:00,62.1,47.2,30.30,NE,45,1.6,1.6,58,0.00,,,0.00,WUHU216HW,2013-07-17 08:05:00,
2013-07-17 02:30:00,61.2,46.8,30.30,ENE,68,0.0,0.0,59,0.00,,,0.00,WUHU216HW,2013-07-17 08:30:00,
2013-07-17 02:35:00,61.2,46.8,30.30,ENE,68,0.0,0.0,59,0.00,,,0.00,WUHU216HW,2013-07-17 08:35:00,
2013-07-17 03:00:00,60.3,46.9,30.30,East,90,0.0,0.0,61,0.00,,,0.00,WUHU216HW,2013-07-17 09:00:00,
2013-07-17 03:05:00,60.3,46.9,30.30,East,90,0.0,0.0,61,0.00,,,0.00,WUHU216HW,2013-07-17 09:05:00,
2013-07-17 03:30:00,59.8,47.2,30.32,West,270,0.9,0.9,63,0.00,,,0.00,WUHU216HW,2013-07-17 09:30:00,
2013-07-17 03:35:00,59.8,47.2,30.32,West,270,0.9,0.9,63,0.00,,,0.00,WUHU216HW,2013-07-17 09:35:00,
2013-07-17 04:00:00,59.2,47.0,30.31,WSW,248,0.0,0.0,64,0.00,,,0.00,WUHU216HW,2013-07-17 10:00:00,
2013-07-17 04:05:00,59.2,47.0,30.31,WSW,248,0.0,0.0,64,0.00,,,0.00,WUHU216HW,2013-07-17 10:05:00,
2013-07-17 04:30:00,58.7,46.5,30.30,WSW,248,0.0,0.0,64,0.00,,,0.00,WUHU216HW,2013-07-17 10:30:00,
2013-07-17 04:35:00,58.7,46.5,30.30,WSW,248,0.0,0.0,64,0.00,,,0.00,WUHU216HW,2013-07-17 10:35:00,
2013-07-17 05:00:00,57.8,45.6,30.30,WSW,248,0.0,0.0,64,0.00,,,0.00,WUHU216HW,2013-07-17 11:00:00,
2013-07-17 05:05:00,57.8,45.6,30.30,WSW,248,0.0,0.0,64,0.00,,,0.00,WUHU216HW,2013-07-17 11:05:00,
2013-07-17 05:30:00,57.2,46.7,30.30,WSW,248,0.7,0.7,68,0.00,,,0.00,WUHU216HW,2013-07-17 11:30:00,
2013-07-17 05:35:00,57.2,46.7,30.30,WSW,248,0.7,0.7,68,0.00,,,0.00,WUHU216HW,2013-07-17 11:35:00,
2013-07-17 06:00:00,56.9,47.2,30.30,WSW,248,1.6,1.6,70,0.00,,,0.00,WUHU216HW,2013-07-17 12:00:00,
2013-07-17 06:05:00,56.9,47.2,30.30,WSW,248,1.6,1.6,70,0.00,,,0.00,WUHU216HW,2013-07-17 12:05:00,
2013-07-17 06:30:00,56.9,47.5,30.31,WSW,248,2.5,2.5,71,0.00,,,0.00,WUHU216HW,2013-07-17 12:30:00,
2013-07-17 06:35:00,56.9,47.5,30.31,WSW,248,2.5,2.5,71,0.00,,,0.00,WUHU216HW,2013-07-17 12:35:00,
2013-07-17 07:00:00,58.3,49.3,30.31,West,270,0.7,0.9,72,0.00,,,0.00,WUHU216HW,2013-07-17 13:00:00,
2013-07-17 07:05:00,58.3,49.3,30.31,West,270,0.7,0.9,72,0.00,,,0.00,WUHU216HW,2013-07-17 13:05:00,
2013-07-17 07:30:00,62.8,53.3,30.31,West,270,0.0,0.0,71,0.00,,,0.00,WUHU216HW,2013-07-17 13:30:00,
2013-07-17 07:35:00,62.8,53.3,30.31,West,270,0.0,0.0,71,0.00,,,0.00,WUHU216HW,2013-07-17 13:35:00,
2013-07-17 08:00:00,68.8,56.1,30.31,NE,45,0.4,0.4,64,0.00,,,0.00,WUHU216HW,2013-07-17 14:00:00,
2013-07-17 08:05:00,68.8,56.1,30.31,NE,45,0.4,0.4,64,0.00,,,0.00,WUHU216HW,2013-07-17 14:05:00,
2013-07-17 08:30:00,72.7,58.5,30.31,ENE,68,0.2,0.2,61,0.00,,,0.00,WUHU216HW,2013-07-17 14:30:00,
2013-07-17 08:35:00,72.7,58.5,30.31,ENE,68,0.2,0.2,61,0.00,,,0.00,WUHU216HW,2013-07-17 14:35:00,
2013-07-17 09:00:00,74.5,57.8,30.32,NNW,338,1.3,1.6,56,0.00,,,0.00,WUHU216HW,2013-07-17 15:00:00,
2013-07-17 09:05:00,74.5,57.8,30.32,NNW,338,1.3,1.6,56,0.00,,,0.00,WUHU216HW,2013-07-17 15:05:00,
2013-07-17 09:30:00,76.1,58.8,30.31,NNW,338,0.9,0.9,55,0.00,,,0.00,WUHU216HW,2013-07-17 15:30:00,
2013-07-17 09:35:00,76.1,58.8,30.31,NNW,338,0.9,0.9,55,0.00,,,0.00,WUHU216HW,2013-07-17 15:35:00,
2013-07-17 10:00:00,77.4,57.9,30.30,North,0,2.0,2.0,51,0.00,,,0.00,WUHU216HW,2013-07-17 16:00:00,
2013-07-17 10:05:00,77.4,57.9,30.30,North,0,2.0,2.0,51,0.00,,,0.00,WUHU216HW,2013-07-17 16:05:00,
2013-07-17 10:30:00,79.4,58.0,30.30,NE,45,3.6,3.6,48,0.00,,,0.00,WUHU216HW,2013-07-17 16:30:00,
2013-07-17 10:35:00,79.4,58.0,30.30,NE,45,3.6,3.6,48,0.00,,,0.00,WUHU216HW,2013-07-17 16:35:00,
2013-07-17 11:00:00,81.4,57.9,30.31,NNE,23,2.9,2.9,45,0.00,,,0.00,WUHU216HW,2013-07-17 17:00:00,
2013-07-17 11:05:00,81.4,57.9,30.31,NNE,23,2.9,2.9,45,0.00,,,0.00,WUHU216HW,2013-07-17 17:05:00,
2013-07-17 11:30:00,82.8,58.0,30.30,East,90,4.3,4.3,43,0.00,,,0.00,WUHU216HW,2013-07-17 17:30:00,
2013-07-17 11:35:00,82.8,58.0,30.30,East,90,4.3,4.3,43,0.00,,,0.00,WUHU216HW,2013-07-17 17:35:00,
2013-07-17 12:00:00,83.5,56.8,30.30,East,90,2.5,3.1,40,0.00,,,0.00,WUHU216HW,2013-07-17 18:00:00,
2013-07-17 12:05:00,83.5,56.8,30.30,East,90,2.5,3.1,40,0.00,,,0.00,WUHU216HW,2013-07-17 18:05:00,
2013-07-17 12:30:00,85.7,56.3,30.28,NNW,338,4.0,4.0,37,0.00,,,0.00,WUHU216HW,2013-07-17 18:30:00,
2013-07-17 12:35:00,85.7,56.3,30.28,NNW,338,4.0,4.0,37,0.00,,,0.00,WUHU216HW,2013-07-17 18:35:00,
2013-07-17 13:00:00,87.5,55.5,30.27,North,0,2.5,2.5,34,0.00,,,0.00,WUHU216HW,2013-07-17 19:00:00,
2013-07-17 13:05:00,87.5,55.5,30.27,North,0,2.5,2.5,34,0.00,,,0.00,WUHU216HW,2013-07-17 19:05:00,
2013-07-17 13:30:00,89.1,56.9,30.26,East,90,4.7,4.7,34,0.00,,,0.00,WUHU216HW,2013-07-17 19:30:00,
2013-07-17 13:35:00,89.1,56.9,30.26,East,90,4.7,4.7,34,0.00,,,0.00,WUHU216HW,2013-07-17 19:35:00,
2013-07-17 14:00:00,90.4,55.6,30.25,NW,315,2.2,2.2,31,0.00,,,0.00,WUHU216HW,2013-07-17 20:00:00,
2013-07-17 14:05:00,90.4,55.6,30.25,NW,315,2.2,2.2,31,0.00,,,0.00,WUHU216HW,2013-07-17 20:05:00,
2013-07-17 14:30:00,90.7,55.2,30.24,WNW,293,0.4,0.4,30,0.00,,,0.00,WUHU216HW,2013-07-17 20:30:00,
2013-07-17 14:35:00,90.7,55.2,30.24,WNW,293,0.4,0.4,30,0.00,,,0.00,WUHU216HW,2013-07-17 20:35:00,
2013-07-17 15:00:00,92.7,54.6,30.23,SW,225,0.7,0.7,28,0.00,,,0.00,WUHU216HW,2013-07-17 21:00:00,
2013-07-17 15:05:00,92.7,54.6,30.23,SW,225,0.7,0.7,28,0.00,,,0.00,WUHU216HW,2013-07-17 21:05:00,
2013-07-17 15:30:00,92.5,53.4,30.22,SSE,158,2.7,2.7,27,0.00,,,0.00,WUHU216HW,2013-07-17 21:30:00,
2013-07-17 15:35:00,92.5,53.4,30.22,SSE,158,2.7,2.7,27,0.00,,,0.00,WUHU216HW,2013-07-17 21:35:00,
2013-07-17 16:00:00,93.2,52.8,30.22,East,90,5.4,5.4,26,0.00,,,0.00,WUHU216HW,2013-07-17 22:00:00,
2013-07-17 16:05:00,93.2,52.8,30.22,East,90,5.4,5.4,26,0.00,,,0.00,WUHU216HW,2013-07-17 22:05:00,
2013-07-17 16:30:00,93.6,53.2,30.21,NNE,23,4.0,4.0,26,0.00,,,0.00,WUHU216HW,2013-07-17 22:30:00,
2013-07-17 17:00:00,93.8,53.3,30.20,SSE,158,5.1,5.1,26,0.00,,,0.00,WUHU216HW,2013-07-17 23:00:00,
2013-07-17 17:30:00,92.5,53.4,30.19,ENE,68,3.8,3.8,27,0.00,,,0.00,WUHU216HW,2013-07-17 23:30:00,
2013-07-17 17:35:00,92.5,53.4,30.19,ENE,68,3.8,3.8,27,0.00,,,0.00,WUHU216HW,2013-07-17 23:35:00,
2013-07-17 18:00:00,92.5,53.4,30.18,North,0,2.9,2.9,27,0.00,,,0.00,WUHU216HW,2013-07-18 00:00:00,
2013-07-17 18:05:00,92.5,53.4,30.18,North,0,2.9,2.9,27,0.00,,,0.00,WUHU216HW,2013-07-18 00:05:00,
2013-07-17 18:30:00,90.5,55.0,30.18,NNE,23,2.2,2.2,30,0.00,,,0.00,WUHU216HW,2013-07-18 00:30:00,
2013-07-17 18:35:00,90.5,55.0,30.18,NNE,23,2.2,2.2,30,0.00,,,0.00,WUHU216HW,2013-07-18 00:35:00,
2013-07-17 19:00:00,89.3,52.7,30.18,ENE,68,2.5,2.5,29,0.00,,,0.00,WUHU216HW,2013-07-18 01:00:00,
2013-07-17 19:05:00,89.3,52.7,30.18,ENE,68,2.5,2.5,29,0.00,,,0.00,WUHU216HW,2013-07-18 01:05:00,
2013-07-17 19:30:00,88.7,52.3,30.18,NE,45,1.1,1.1,29,0.00,,,0.00,WUHU216HW,2013-07-18 01:30:00,
2013-07-17 19:35:00,88.7,52.3,30.18,NE,45,1.1,1.1,29,0.00,,,0.00,WUHU216HW,2013-07-18 01:35:00,
2013-07-17 20:00:00,87.8,55.0,30.18,ENE,68,0.0,0.0,33,0.00,,,0.00,WUHU216HW,2013-07-18 02:00:00,
2013-07-17 20:05:00,87.8,55.0,30.18,ENE,68,0.0,0.0,33,0.00,,,0.00,WUHU216HW,2013-07-18 02:05:00,
2013-07-17 20:30:00,85.3,54.5,30.18,ENE,68,0.0,0.0,35,0.00,,,0.00,WUHU216HW,2013-07-18 02:30:00,
2013-07-17 20:35:00,85.3,54.5,30.18,ENE,68,0.0,0.0,35,0.00,,,0.00,WUHU216HW,2013-07-18 02:35:00,
2013-07-17 22:00:00,79.6,52.5,30.23,SSE,158,2.9,2.9,39,0.00,,,0.00,WUHU216HW,2013-07-18 04:00:00,
2013-07-17 22:01:00,79.6,52.5,30.23,South,180,3.4,3.4,39,0.00,,,0.00,WUHU216HW,2013-07-18 04:01:00,
2013-07-17 22:02:00,79.6,52.5,30.23,South,180,3.4,3.4,39,0.00,,,0.00,WUHU216HW,2013-07-18 04:02:00,
2013-07-17 22:07:00,79.6,52.5,30.23,South,180,3.4,3.4,39,0.00,,,0.00,WUHU216HW,2013-07-18 04:07:00,